createdAt,value
2017-12-23T00:01:39.952Z,20.60
2017-12-23T00:04:08.113Z,20.83
2017-12-23T00:06:36.230Z,28.00
2017-12-23T00:09:04.357Z,27.47
2017-12-23T00:11:32.479Z,22.37
2017-12-23T00:14:01.546Z,26.63
2017-12-23T00:18:58.516Z,27.80
2017-12-23T00:21:26.631Z,29.53
2017-12-23T00:23:54.756Z,25.63
2017-12-23T00:26:22.920Z,29.87
2017-12-23T00:28:51.148Z,30.33
2017-12-23T00:34:35.943Z,28.50
2017-12-23T00:37:04.089Z,28.73
2017-12-23T00:39:32.234Z,28.70
2017-12-23T00:42:00.404Z,29.70
2017-12-23T00:44:28.557Z,28.97
2017-12-23T00:46:56.649Z,28.93
2017-12-23T00:49:24.799Z,29.23
2017-12-23T00:51:52.913Z,27.70
2017-12-23T00:54:21.013Z,29.47
2017-12-23T00:56:49.502Z,28.57
2017-12-23T00:59:17.587Z,29.10
2017-12-23T01:01:46.678Z,29.53
2017-12-23T01:04:15.832Z,30.77
2017-12-23T01:06:43.953Z,30.87
2017-12-23T01:09:12.847Z,30.40
2017-12-23T01:11:41.750Z,31.33
2017-12-23T01:14:11.034Z,30.50
2017-12-23T01:16:39.876Z,30.87
2017-12-23T01:21:47.564Z,30.37
2017-12-23T01:24:15.764Z,29.90
2017-12-23T01:26:44.073Z,28.43
2017-12-23T01:29:12.340Z,27.70
2017-12-23T01:31:40.425Z,29.00
2017-12-23T01:34:08.566Z,26.40
2017-12-23T01:36:36.789Z,28.60
2017-12-23T01:39:04.998Z,27.50
2017-12-23T01:41:33.121Z,28.20
2017-12-23T01:44:01.201Z,26.67
2017-12-23T01:49:09.278Z,26.40
2017-12-23T01:51:37.384Z,27.50
2017-12-23T01:54:05.555Z,27.30
2017-12-23T01:56:33.667Z,29.20
2017-12-23T01:59:02.585Z,27.60
2017-12-23T02:01:30.812Z,26.77
2017-12-23T02:03:58.912Z,27.47
2017-12-23T02:06:27.760Z,27.03
2017-12-23T02:08:55.968Z,28.47
2017-12-23T02:11:25.055Z,28.50
2017-12-23T02:13:53.188Z,28.93
2017-12-23T02:16:21.280Z,27.83
2017-12-23T02:18:49.454Z,27.77
2017-12-23T02:21:17.572Z,29.40
2017-12-23T02:23:46.526Z,29.10
2017-12-23T02:26:14.673Z,29.43
2017-12-23T02:28:42.763Z,29.93
2017-12-23T02:31:10.857Z,32.10
2017-12-23T02:33:38.994Z,31.20
2017-12-23T02:36:07.145Z,30.53
2017-12-23T02:41:50.162Z,31.50
2017-12-23T02:44:19.113Z,32.30
2017-12-23T02:49:38.408Z,32.60
2017-12-23T02:52:06.484Z,31.77
2017-12-23T02:54:34.760Z,32.40
2017-12-23T02:57:03.235Z,32.00
2017-12-23T02:59:31.470Z,32.00
2017-12-23T03:01:59.588Z,34.73
2017-12-23T03:04:27.712Z,29.77
2017-12-23T03:06:56.244Z,31.17
2017-12-23T03:09:24.496Z,30.87
2017-12-23T03:11:52.718Z,31.70
2017-12-23T03:14:20.907Z,31.60
2017-12-23T03:16:51.308Z,30.73
2017-12-23T03:19:19.571Z,32.33
2017-12-23T03:21:47.851Z,31.40
2017-12-23T03:24:15.962Z,31.30
2017-12-23T03:26:44.865Z,30.80
2017-12-23T03:29:12.982Z,32.00
2017-12-23T03:31:41.248Z,31.13
2017-12-23T03:34:10.269Z,32.90
2017-12-23T03:36:38.408Z,31.67
2017-12-23T03:42:21.375Z,31.90
2017-12-23T03:44:49.530Z,34.30
2017-12-23T03:47:17.648Z,33.10
2017-12-23T03:49:46.588Z,34.17
2017-12-23T03:52:14.705Z,33.77
2017-12-23T03:54:43.584Z,36.60
2017-12-23T03:57:11.762Z,35.53
2017-12-23T03:59:40.528Z,34.10
2017-12-23T04:02:08.603Z,35.27
2017-12-23T04:04:36.736Z,35.40
2017-12-23T04:07:04.850Z,34.47
2017-12-23T04:09:34.204Z,37.37
2017-12-23T04:12:02.416Z,32.20
2017-12-23T04:14:30.645Z,33.67
2017-12-23T04:16:58.910Z,31.63
2017-12-23T04:19:27.927Z,29.47
2017-12-23T04:21:56.043Z,29.47
2017-12-23T04:24:24.296Z,29.70
2017-12-23T04:26:52.944Z,30.40
2017-12-23T04:29:21.100Z,23.90
2017-12-23T04:31:49.984Z,24.50
2017-12-23T04:34:18.154Z,21.93
2017-12-23T04:36:46.316Z,23.77
2017-12-23T04:39:14.449Z,21.40
2017-12-23T04:41:42.596Z,20.50
2017-12-23T04:44:12.438Z,20.23
2017-12-23T04:46:40.527Z,18.80
2017-12-23T04:49:08.656Z,19.37
2017-12-23T04:54:52.852Z,19.37
2017-12-23T04:57:20.947Z,18.23
2017-12-23T04:59:49.420Z,18.20
2017-12-23T05:02:17.576Z,20.70
2017-12-23T05:04:45.674Z,21.27
2017-12-23T05:07:13.779Z,24.13
2017-12-23T05:09:43.858Z,22.80
2017-12-23T05:12:12.980Z,24.20
2017-12-23T05:14:41.106Z,25.50
2017-12-23T05:17:10.196Z,27.63
2017-12-23T05:19:38.741Z,29.43
2017-12-23T05:22:07.628Z,29.70
2017-12-23T05:24:36.733Z,30.53
2017-12-23T05:27:05.672Z,28.63
2017-12-23T05:29:33.837Z,29.47
2017-12-23T05:32:01.994Z,32.80
2017-12-23T05:34:30.082Z,32.00
2017-12-23T05:36:58.182Z,30.80
2017-12-23T05:39:26.448Z,32.80
2017-12-23T05:41:54.525Z,33.90
2017-12-23T05:47:01.800Z,37.40
2017-12-23T05:49:30.215Z,37.40
2017-12-23T05:51:58.451Z,38.10
2017-12-23T05:54:28.645Z,36.87
2017-12-23T05:56:57.627Z,37.43
2017-12-23T05:59:26.544Z,35.13
2017-12-23T06:01:54.839Z,35.13
2017-12-23T06:04:22.934Z,37.40
2017-12-23T06:06:51.107Z,36.37
2017-12-23T06:09:19.400Z,34.67
2017-12-23T06:11:47.569Z,37.40
2017-12-23T06:14:15.680Z,36.30
2017-12-23T06:16:44.629Z,35.17
2017-12-23T06:19:12.827Z,36.40
2017-12-23T06:21:41.720Z,37.60
2017-12-23T06:24:10.568Z,38.77
2017-12-23T06:29:17.781Z,39.10
2017-12-23T06:31:45.883Z,37.10
2017-12-23T06:34:14.859Z,37.63
2017-12-23T06:36:42.947Z,40.90
2017-12-23T06:39:11.943Z,37.77
2017-12-23T06:41:44.927Z,39.30
2017-12-23T06:44:14.206Z,39.20
2017-12-23T06:46:42.290Z,40.60
2017-12-23T06:49:10.418Z,39.60
2017-12-23T06:51:38.610Z,39.50
2017-12-23T06:54:06.745Z,41.90
2017-12-23T06:56:35.660Z,41.77
2017-12-23T06:59:03.860Z,39.03
2017-12-23T07:01:32.044Z,41.27
2017-12-23T07:04:00.147Z,42.47
2017-12-23T07:06:29.048Z,44.00
2017-12-23T07:08:57.132Z,44.20
2017-12-23T07:11:27.177Z,43.13
2017-12-23T07:13:55.324Z,41.57
2017-12-23T07:16:23.465Z,43.00
2017-12-23T07:18:52.409Z,45.60
2017-12-23T07:21:21.454Z,40.87
2017-12-23T07:23:49.723Z,43.90
2017-12-23T07:26:17.850Z,44.00
2017-12-23T07:28:46.084Z,45.30
2017-12-23T07:31:15.903Z,50.70
2017-12-23T07:33:44.865Z,43.37
2017-12-23T07:36:12.994Z,41.83
2017-12-23T07:38:41.156Z,40.67
2017-12-23T07:41:09.280Z,42.47
2017-12-23T07:43:37.372Z,40.47
2017-12-23T07:46:05.752Z,44.70
2017-12-23T07:48:33.896Z,41.53
2017-12-23T07:51:02.067Z,42.73
2017-12-23T07:53:31.094Z,41.20
2017-12-23T07:56:00.062Z,39.00
2017-12-23T07:58:28.160Z,40.60
2017-12-23T08:00:56.412Z,39.43
2017-12-23T08:03:24.525Z,39.10
2017-12-23T08:05:53.415Z,36.77
2017-12-23T08:08:22.328Z,38.50
2017-12-23T08:10:50.448Z,35.57
2017-12-23T08:13:18.614Z,35.30
2017-12-23T08:15:47.719Z,35.97
2017-12-23T08:18:15.911Z,38.07
2017-12-23T08:20:44.064Z,34.33
2017-12-23T08:23:12.213Z,31.40
2017-12-23T08:25:40.537Z,31.37
2017-12-23T08:28:09.472Z,33.80
2017-12-23T08:30:37.662Z,32.43
2017-12-23T08:33:05.832Z,33.50
2017-12-23T08:35:34.004Z,31.07
2017-12-23T08:38:02.120Z,30.63
2017-12-23T08:40:30.228Z,30.90
2017-12-23T08:42:58.365Z,31.57
2017-12-23T08:45:27.224Z,30.03
2017-12-23T08:53:27.434Z,30.70
2017-12-23T08:55:56.315Z,32.10
2017-12-23T08:58:25.245Z,30.93
2017-12-23T09:00:53.388Z,30.13
2017-12-23T09:09:02.506Z,27.93
2017-12-23T09:11:30.689Z,27.87
2017-12-23T09:13:58.846Z,25.60
2017-12-23T09:16:26.980Z,23.97
2017-12-23T09:18:55.924Z,22.73
2017-12-23T09:21:24.648Z,23.80
2017-12-23T09:23:52.759Z,22.00
2017-12-23T09:26:20.887Z,22.83
2017-12-23T09:28:49.019Z,19.53
2017-12-23T09:31:17.163Z,21.03
2017-12-23T09:33:45.996Z,19.00
2017-12-23T09:36:14.165Z,20.63
2017-12-23T09:38:42.932Z,20.00
2017-12-23T09:41:11.075Z,19.47
2017-12-23T09:43:41.866Z,19.03
2017-12-23T09:46:09.980Z,20.47
2017-12-23T09:48:38.901Z,22.17
2017-12-23T09:51:07.068Z,20.60
2017-12-23T09:53:35.209Z,19.97
2017-12-23T09:56:03.546Z,21.00
2017-12-23T09:58:31.689Z,21.07
2017-12-23T10:00:59.782Z,19.70
2017-12-23T10:03:27.954Z,19.53
2017-12-23T10:05:56.157Z,19.77
2017-12-23T10:08:24.780Z,17.73
2017-12-23T10:10:53.747Z,19.23
2017-12-23T10:13:22.091Z,19.10
2017-12-23T10:15:50.208Z,19.20
2017-12-23T10:20:58.167Z,19.30
2017-12-23T10:23:26.775Z,19.67
2017-12-23T10:25:54.920Z,19.87
2017-12-23T10:28:23.027Z,22.33
2017-12-23T10:30:52.133Z,23.13
2017-12-23T10:33:20.499Z,25.20
2017-12-23T10:35:48.612Z,27.17
2017-12-23T10:38:16.764Z,27.30
2017-12-23T10:40:45.138Z,25.80
2017-12-23T10:43:13.307Z,26.60
2017-12-23T10:49:45.495Z,24.20
2017-12-23T10:52:13.648Z,24.47
2017-12-23T10:54:41.787Z,24.90
2017-12-23T10:57:12.272Z,25.20
2017-12-23T10:59:40.451Z,24.20
2017-12-23T11:02:08.534Z,26.07
2017-12-23T11:04:36.707Z,25.80
2017-12-23T11:07:04.787Z,24.73
2017-12-23T11:09:32.954Z,25.53
2017-12-23T11:12:01.025Z,25.77
2017-12-23T11:14:29.180Z,24.37
2017-12-23T11:17:00.333Z,23.40
2017-12-23T11:19:28.452Z,21.63
2017-12-23T11:22:02.092Z,22.07
2017-12-23T11:49:53.995Z,18.67
2017-12-23T11:52:22.187Z,18.50
2017-12-23T11:54:50.399Z,18.90
2017-12-23T11:57:18.536Z,17.80
2017-12-23T11:59:46.668Z,18.00
2017-12-23T12:02:14.840Z,18.70
2017-12-23T12:04:43.249Z,15.87
2017-12-23T12:07:12.433Z,16.03
2017-12-23T12:09:42.633Z,17.30
2017-12-23T12:12:30.833Z,17.03
2017-12-23T12:15:00.018Z,16.10
2017-12-23T12:17:30.147Z,15.80
2017-12-23T12:19:59.270Z,15.27
2017-12-23T12:22:27.406Z,14.00
2017-12-23T12:24:55.671Z,13.70
2017-12-23T12:27:23.870Z,12.60
2017-12-23T12:29:51.977Z,11.53
2017-12-23T12:32:20.839Z,10.53
2017-12-23T12:34:49.228Z,9.70
2017-12-23T12:37:17.294Z,8.63
2017-12-23T12:39:45.446Z,8.37
2017-12-23T12:42:13.984Z,7.20
2017-12-23T12:44:42.136Z,7.20
2017-12-23T12:47:10.978Z,7.40
2017-12-23T12:49:39.125Z,6.07
2017-12-23T12:52:08.140Z,6.07
2017-12-23T12:54:36.314Z,5.80
2017-12-23T12:57:04.504Z,6.20
2017-12-23T12:59:32.588Z,5.80
2017-12-23T13:02:00.737Z,5.90
2017-12-23T13:04:29.756Z,5.53
2017-12-23T13:06:57.899Z,4.83
2017-12-23T13:09:26.034Z,5.73
2017-12-23T13:11:54.951Z,4.80
2017-12-23T13:14:23.235Z,4.53
2017-12-23T13:16:51.312Z,5.47
2017-12-23T13:19:19.474Z,6.00
2017-12-23T13:21:47.603Z,5.43
2017-12-23T13:24:15.712Z,5.13
2017-12-23T13:26:43.829Z,5.10
2017-12-23T13:29:11.944Z,4.53
2017-12-23T13:31:40.072Z,5.53
2017-12-23T13:34:08.157Z,4.93
2017-12-23T13:36:36.275Z,5.63
2017-12-23T13:39:04.458Z,5.90
2017-12-23T13:41:32.508Z,6.77
2017-12-23T13:44:00.604Z,7.30
2017-12-23T13:46:29.084Z,7.90
2017-12-23T13:48:57.220Z,7.47
2017-12-23T13:51:25.372Z,7.67
2017-12-23T13:53:53.645Z,7.27
2017-12-23T13:56:21.829Z,8.40
2017-12-23T13:58:49.927Z,8.70
2017-12-23T14:01:18.784Z,10.57
2017-12-23T14:03:46.935Z,11.03
2017-12-23T14:06:15.158Z,11.53
2017-12-23T14:08:43.320Z,11.33
2017-12-23T14:11:11.463Z,10.70
2017-12-23T14:13:39.576Z,11.77
2017-12-23T14:16:08.264Z,11.30
2017-12-23T14:18:37.157Z,12.27
2017-12-23T14:21:05.309Z,11.47
2017-12-23T14:23:34.579Z,12.43
2017-12-23T14:26:02.683Z,12.30
2017-12-23T14:28:30.831Z,12.67
2017-12-23T14:30:58.990Z,11.27
2017-12-23T14:33:27.178Z,11.27
2017-12-23T14:35:55.326Z,12.73
2017-12-23T14:38:23.420Z,12.70
2017-12-23T14:40:52.054Z,12.93
2017-12-23T14:43:20.939Z,13.33
2017-12-23T14:45:49.158Z,12.00
2017-12-23T14:48:17.284Z,12.50
2017-12-23T14:50:46.187Z,11.00
2017-12-23T14:53:15.114Z,11.67
2017-12-23T14:55:43.248Z,10.87
2017-12-23T14:58:12.144Z,12.27
2017-12-23T15:00:41.032Z,11.03
2017-12-23T15:03:09.927Z,12.33
2017-12-23T15:05:38.777Z,12.63
2017-12-23T15:08:06.920Z,11.33
2017-12-23T15:10:35.032Z,12.47
2017-12-23T15:13:03.192Z,10.60
2017-12-23T15:15:31.352Z,11.37
2017-12-23T15:17:59.569Z,12.03
2017-12-23T15:20:27.692Z,12.07
2017-12-23T15:22:55.817Z,11.73
2017-12-23T15:25:23.955Z,11.40
2017-12-23T15:27:52.047Z,10.63
2017-12-23T15:30:20.236Z,10.20
2017-12-23T15:32:48.469Z,10.20
2017-12-23T15:35:16.585Z,10.70
2017-12-23T15:37:44.713Z,11.27
2017-12-23T15:40:12.805Z,11.20
2017-12-23T15:42:40.945Z,11.00
2017-12-23T15:45:09.185Z,11.13
2017-12-23T15:47:37.329Z,10.47
2017-12-23T15:50:05.455Z,11.23
2017-12-23T15:52:33.559Z,10.03
2017-12-23T15:55:01.805Z,9.10
2017-12-23T15:57:29.916Z,10.13
2017-12-23T16:00:01.647Z,10.27
2017-12-23T16:02:29.759Z,9.90
2017-12-23T16:04:57.874Z,9.80
2017-12-23T16:07:26.131Z,9.10
2017-12-23T16:09:54.456Z,10.53
2017-12-23T16:12:22.548Z,9.63
2017-12-23T16:14:50.692Z,10.17
2017-12-23T16:17:18.800Z,10.33
2017-12-23T16:19:46.876Z,10.90
2017-12-23T16:22:15.020Z,10.73
2017-12-23T16:24:43.124Z,11.10
2017-12-23T16:27:11.931Z,11.73
2017-12-23T16:29:40.826Z,10.83
2017-12-23T16:32:10.691Z,9.97
2017-12-23T16:34:38.826Z,11.17
2017-12-23T16:37:07.906Z,11.10
2017-12-23T16:39:36.925Z,12.57
2017-12-23T16:42:05.816Z,12.43
2017-12-23T16:44:35.522Z,11.50
2017-12-23T16:47:04.420Z,12.53
2017-12-23T16:49:32.556Z,11.80
2017-12-23T16:52:00.639Z,12.43
2017-12-23T16:54:28.759Z,12.67
2017-12-23T16:56:56.873Z,12.47
2017-12-23T16:59:25.043Z,13.23
2017-12-23T17:01:53.689Z,14.33
2017-12-23T17:04:21.832Z,13.63
2017-12-23T17:06:50.739Z,13.57
2017-12-23T17:09:23.670Z,12.40
2017-12-23T17:11:51.798Z,13.90
2017-12-23T17:14:19.925Z,14.03
2017-12-23T17:16:48.019Z,13.33
2017-12-23T17:19:16.286Z,13.50
2017-12-23T17:21:44.435Z,12.90
2017-12-23T17:24:13.460Z,14.77
2017-12-23T17:26:41.623Z,13.27
2017-12-23T17:32:17.050Z,13.13
2017-12-23T17:34:45.259Z,12.80
2017-12-23T17:37:14.083Z,12.50
2017-12-23T17:39:42.259Z,12.87
2017-12-23T17:42:10.424Z,13.03
2017-12-23T17:44:42.049Z,13.10
2017-12-23T17:47:12.962Z,13.30
2017-12-23T17:49:41.047Z,12.40
2017-12-23T17:52:13.012Z,13.53
2017-12-23T17:54:42.827Z,13.20
2017-12-23T17:57:11.123Z,13.23
2017-12-23T17:59:39.248Z,12.60
2017-12-23T18:05:22.788Z,12.77
2017-12-23T18:07:50.883Z,13.20
2017-12-23T18:10:19.002Z,13.77
2017-12-23T18:12:47.143Z,14.40
2017-12-23T18:15:15.467Z,14.20
2017-12-23T18:17:44.367Z,13.60
2017-12-23T18:20:12.667Z,13.60
2017-12-23T18:22:40.776Z,14.40
2017-12-23T18:25:08.900Z,14.87
2017-12-23T18:27:37.003Z,13.70
2017-12-23T18:30:05.148Z,15.03
2017-12-23T18:35:24.048Z,15.47
2017-12-23T18:37:52.165Z,14.77
2017-12-23T18:40:21.458Z,15.30
2017-12-23T18:42:49.585Z,14.57
2017-12-23T18:45:19.508Z,14.97
2017-12-23T18:47:47.603Z,15.43
2017-12-23T18:50:15.792Z,15.13
2017-12-23T18:52:44.659Z,15.53
2017-12-23T18:55:12.782Z,15.70
2017-12-23T18:57:40.949Z,16.17
2017-12-23T19:00:09.816Z,16.97
2017-12-23T19:02:38.058Z,14.93
2017-12-23T19:05:06.163Z,15.80
2017-12-23T19:07:34.331Z,15.77
2017-12-23T19:10:02.449Z,16.00
2017-12-23T19:12:30.584Z,15.53
2017-12-23T19:14:58.673Z,15.30
2017-12-23T19:17:26.888Z,15.77
2017-12-23T19:19:55.123Z,16.63
2017-12-23T19:22:23.996Z,16.67
2017-12-23T19:24:52.090Z,15.57
2017-12-23T19:27:20.211Z,17.67
2017-12-23T19:29:48.325Z,17.37
2017-12-23T19:32:16.433Z,18.40
2017-12-23T19:34:44.680Z,18.10
2017-12-23T19:37:12.814Z,16.00
2017-12-23T19:39:40.928Z,18.30
2017-12-23T19:42:09.915Z,18.13
2017-12-23T19:44:38.800Z,18.10
2017-12-23T19:47:07.835Z,17.30
2017-12-23T19:49:36.134Z,17.80
2017-12-23T19:52:04.228Z,24.13
2017-12-23T19:54:32.341Z,18.33
2017-12-23T19:57:00.443Z,18.43
2017-12-23T19:59:28.678Z,19.30
2017-12-23T20:01:57.542Z,24.50
2017-12-23T20:04:25.772Z,20.60
2017-12-23T20:06:54.117Z,21.50
2017-12-23T20:09:22.214Z,19.33
2017-12-23T20:11:50.392Z,19.97
2017-12-23T20:14:18.491Z,20.07
2017-12-23T20:16:46.581Z,19.73
2017-12-23T20:19:14.700Z,20.30
2017-12-23T20:21:42.911Z,20.57
2017-12-23T20:24:11.057Z,20.57
2017-12-23T20:26:39.159Z,20.10
2017-12-23T20:29:07.273Z,20.57
2017-12-23T20:31:37.192Z,20.30
2017-12-23T20:34:06.065Z,20.70
2017-12-23T20:36:34.204Z,20.13
2017-12-23T20:39:02.363Z,18.90
2017-12-23T20:41:30.865Z,20.40
2017-12-23T20:43:58.978Z,19.90
2017-12-23T20:46:27.867Z,18.80
2017-12-23T20:48:55.984Z,22.10
2017-12-23T20:51:24.106Z,19.67
2017-12-23T20:53:53.102Z,19.40
2017-12-23T20:56:21.286Z,19.90
2017-12-23T20:58:49.417Z,19.50
2017-12-23T21:01:17.612Z,18.73
2017-12-23T21:03:45.928Z,19.10
2017-12-23T21:06:14.085Z,19.60
2017-12-23T21:08:42.264Z,18.30
2017-12-23T21:11:10.440Z,21.33
2017-12-23T21:13:38.537Z,19.10
2017-12-23T21:16:06.653Z,19.30
2017-12-23T21:18:34.775Z,18.97
2017-12-23T21:21:02.874Z,20.30
2017-12-23T21:23:31.009Z,17.47
2017-12-23T21:25:59.863Z,19.87
2017-12-23T21:28:28.134Z,17.97
2017-12-23T21:30:56.259Z,18.60
2017-12-23T21:33:24.518Z,18.67
2017-12-23T21:35:52.712Z,18.40
2017-12-23T21:38:20.832Z,18.90
2017-12-23T21:40:48.932Z,18.50
2017-12-23T21:43:17.788Z,20.30
2017-12-23T21:45:45.911Z,18.73
2017-12-23T21:48:14.044Z,20.13
2017-12-23T21:50:42.157Z,18.57
2017-12-23T21:53:10.250Z,16.97
2017-12-23T21:55:38.371Z,19.53
2017-12-23T21:58:06.480Z,17.10
2017-12-23T22:00:34.598Z,19.37
2017-12-23T22:03:02.747Z,19.60
2017-12-23T22:05:30.860Z,19.33
2017-12-23T22:07:59.040Z,19.83
2017-12-23T22:10:27.235Z,20.10
2017-12-23T22:12:56.124Z,30.13
2017-12-23T22:15:24.229Z,19.40
2017-12-23T22:17:52.352Z,19.50
2017-12-23T22:20:21.298Z,18.90
2017-12-23T22:22:49.412Z,20.67
2017-12-23T22:25:17.541Z,18.60
2017-12-23T22:27:45.659Z,20.33
2017-12-23T22:30:13.745Z,20.37
2017-12-23T22:32:42.666Z,19.80
2017-12-23T22:35:10.779Z,20.27
2017-12-23T22:37:38.927Z,19.17
2017-12-23T22:40:07.159Z,20.43
2017-12-23T22:42:36.264Z,19.90
2017-12-23T22:45:04.544Z,19.27
2017-12-23T22:47:32.664Z,18.77
2017-12-23T22:50:00.995Z,16.80
2017-12-23T22:52:29.090Z,16.97
2017-12-23T22:54:57.232Z,16.60
2017-12-23T22:57:26.083Z,16.23
2017-12-23T22:59:54.207Z,16.33
2017-12-23T23:02:22.320Z,14.93
2017-12-23T23:04:50.645Z,14.80
2017-12-23T23:07:19.592Z,13.83
2017-12-23T23:09:47.723Z,13.90
2017-12-23T23:12:16.562Z,14.03
2017-12-23T23:14:44.776Z,14.40
2017-12-23T23:17:13.921Z,13.70
2017-12-23T23:19:42.236Z,14.13
2017-12-23T23:22:10.376Z,14.20
2017-12-23T23:24:38.599Z,12.70
2017-12-23T23:27:06.692Z,13.27
2017-12-23T23:29:34.919Z,11.67
2017-12-23T23:32:03.045Z,12.40
2017-12-23T23:34:31.190Z,12.50
2017-12-23T23:37:00.087Z,13.17
2017-12-23T23:39:28.995Z,12.60
2017-12-23T23:41:57.435Z,13.20
2017-12-23T23:44:25.540Z,11.83
2017-12-23T23:46:53.747Z,13.50
2017-12-23T23:49:22.110Z,14.37
2017-12-23T23:51:50.939Z,13.27
2017-12-23T23:54:19.094Z,15.17
2017-12-23T23:56:47.278Z,16.00
2017-12-23T23:59:15.372Z,16.40
